Bei Facebook empfehlenBei Twitter postenGoogle plusPinterest

Das Wetter im Erzgebirge am 20.02.2016

Wetter und Klima am 20.02.2016 Holzhau im Erzgebirge (630m ü.NN)
Letzte gemessene Temperatur und Uhrzeit der Messung23:45:00 Uhr2.40 °C
Temperatur (Maximum / Höchstwert) und Uhrzeit der Messung10:30:00 Uhr2.60 °C
Temperatur (Minimum / Tiefstwert) und Uhrzeit der Messung06:30:00-3.00 °C
Errechneter Absolutwert der Temperaturschwankungen zwischen Tmin und Tmax des Tages5.60 K
Errechnete Tagesmitteltemperatur0.06875 °C
Gesamt - Niederschlag des Tages (in flüssiger Form)7.77 Liter / m²
Luftdruck (Maximum / Höchstwert) und Zeitpunkt der Messung00:30:00 Uhr1015.20 hPa
Luftdruck (Minimum / Tiefstwert) und Zeitpunkt der Messung23:45:00 Uhr1005.00 hPa
Errechneter Absolutwert der Luftdruckschwankungen des Tages10.20 hPa
Höchste gemessene Windgeschwindigkeit und Uhrzeit der Messung15:15:00 Uhr183.60 km/h
Errechnete Windhäufigkeit in Relation zu den Messwerten des Tages42.70833 %
Niedrigste Windkühle (Windchill) und Zeitpunkt der Messung09:45:00 Uhr-11.20 °C
Taupunkt (Maximum / Höchstwert) und Uhrzeit der Messung23:45:00 Uhr1.50 °C
Taupunkt (Minimum / Tiefstwert) und Uhrzeit der Messung06:30:00-4.90 °C
Anzahl der automatisch eingelesenen Messwerte 96

Detaillierte Wetter- und Klima- Messwerte für den 20.02.2016 in Holzhau im Erzgebirge (630m ü.NN)
ZeitTemperaturLuftdruckRel. LuftfeuchteWindWindrichtungWindchillTaupunktNiederschlag l/m²
23:45:002.40 °C1005.00 hPa94.00 %3.24 km/hW2.40 °C1.50 °C7.77
23:30:002.10 °C1005.30 hPa94.00 %1.20 °C7.77
23:15:001.80 °C1005.40 hPa94.00 %6.12 km/hSW0.00 °C0.90 °C7.77
23:00:001.50 °C1005.20 hPa93.00 %0.50 °C7.25
22:45:001.30 °C1005.80 hPa93.00 %0.30 °C7.25
22:30:001.00 °C1005.70 hPa93.00 %0.00 °C7.25
22:15:000.70 °C1006.10 hPa93.00 %-0.30 °C6.73
22:00:000.70 °C1006.10 hPa93.00 %-0.30 °C6.21
21:45:000.90 °C1006.40 hPa93.00 %3.96 km/hW0.90 °C-0.10 °C5.69
21:30:000.90 °C1006.70 hPa93.00 %7.20 km/hWSW-1.40 °C-0.10 °C5.69
21:15:001.20 °C1006.80 hPa93.00 %0.20 °C5.18
21:00:001.30 °C1006.90 hPa93.00 %0.30 °C4.66
20:45:001.30 °C1006.90 hPa93.00 %0.30 °C4.66
20:30:001.40 °C1006.70 hPa93.00 %9.36 km/hW-1.50 °C0.40 °C4.14
20:15:001.30 °C1006.80 hPa93.00 %5.76 km/hWNW-0.40 °C0.30 °C3.62
20:00:001.30 °C1006.70 hPa92.00 %10.44 km/hSW-1.90 °C0.10 °C3.10
19:45:001.20 °C1006.80 hPa92.00 %5.40 km/hNNW-0.40 °C0.00 °C3.10
19:30:001.00 °C1006.90 hPa92.00 %4.32 km/hSW1.00 °C-0.10 °C2.59
19:15:000.90 °C1006.80 hPa92.00 %4.32 km/hWNW0.90 °C-0.20 °C2.59
19:00:000.90 °C1007.00 hPa92.00 %5.40 km/hWSW-0.70 °C-0.20 °C2.07
18:45:000.70 °C1007.10 hPa92.00 %10.08 km/hWSW-2.50 °C-0.40 °C2.07
18:30:000.50 °C1007.30 hPa91.00 %-0.80 °C1.55
18:15:000.50 °C1007.50 hPa91.00 %-0.80 °C1.55
18:00:000.50 °C1007.70 hPa91.00 %-0.80 °C1.03
17:45:000.60 °C1007.50 hPa91.00 %-0.70 °C1.03
17:30:000.60 °C1007.70 hPa90.00 %-0.80 °C1.03
17:15:000.70 °C1007.50 hPa90.00 %3.96 km/hW0.70 °C-0.70 °C1.03
17:00:000.80 °C1007.60 hPa90.00 %-0.60 °C1.03
16:45:000.80 °C1007.70 hPa89.00 %-0.80 °C0.51
16:30:000.90 °C1007.60 hPa89.00 %3.24 km/hNW0.90 °C-0.70 °C0.51
16:15:000.90 °C1007.80 hPa89.00 %-0.70 °C0.51
16:00:001.10 °C1008.00 hPa88.00 %-0.70 °C0.51
15:45:001.20 °C1008.00 hPa88.00 %-0.60 °C0.51
15:30:001.30 °C1008.30 hPa88.00 %-0.50 °C0.51
15:15:001.30 °C1008.50 hPa87.00 %183.60 km/hSW-11.10 °C-0.60 °C0.51
15:00:001.30 °C1008.40 hPa87.00 %-0.60 °C0.51
14:45:001.30 °C1008.50 hPa87.00 %-0.60 °C0.51
14:30:001.30 °C1008.50 hPa87.00 %-0.60 °C0.51
14:15:001.30 °C1008.60 hPa86.00 %-0.80 °C0.51
14:00:001.30 °C1009.00 hPa85.00 %-0.90 °C0.51
13:45:001.50 °C1009.00 hPa85.00 %-0.70 °C0.51
13:30:001.50 °C1009.40 hPa85.00 %9.36 km/hSW-1.40 °C-0.70 °C0.51
13:15:001.50 °C1009.50 hPa84.00 %-0.90 °C0.51
13:00:001.50 °C1009.60 hPa84.00 %3.24 km/hSO1.50 °C-0.90 °C 
12:45:001.60 °C1010.10 hPa83.00 %9.00 km/hS-1.10 °C-1.00 °C 
12:30:001.80 °C1010.30 hPa83.00 %11.88 km/hWSW-1.60 °C-0.80 °C 
12:15:001.90 °C1010.60 hPa82.00 %5.76 km/hSSO0.30 °C-0.80 °C 
12:00:002.10 °C1010.90 hPa81.00 %-0.80 °C 
11:45:002.20 °C1011.30 hPa81.00 %-0.70 °C 
11:30:002.30 °C1011.30 hPa81.00 %2.52 km/hN2.30 °C-0.60 °C 
11:15:002.20 °C1011.40 hPa81.00 %5.40 km/hSW0.70 °C-0.70 °C 
11:00:002.20 °C1011.60 hPa82.00 %5.40 km/hSW0.70 °C-0.50 °C 
10:45:002.50 °C1011.80 hPa82.00 %10.08 km/hSW-0.30 °C-0.30 °C 
10:30:002.60 °C1011.70 hPa84.00 %0.20 °C 
10:15:002.40 °C1012.20 hPa85.00 %0.10 °C 
10:00:001.90 °C1012.20 hPa86.00 %-0.20 °C 
09:45:001.20 °C1012.20 hPa87.00 %183.60 km/hSSW-11.20 °C-0.70 °C 
09:30:000.40 °C1012.50 hPa87.00 %11.88 km/hS-3.30 °C-1.50 °C 
09:15:000.10 °C1012.70 hPa87.00 %-1.80 °C 
09:00:00-0.40 °C1013.00 hPa88.00 %8.28 km/hSW-3.30 °C-2.30 °C 
08:45:00-0.70 °C1012.90 hPa88.00 %9.36 km/hSSO-4.00 °C-2.60 °C 
08:30:00-1.00 °C1012.60 hPa88.00 %3.24 km/hS-1.00 °C-2.90 °C 
08:15:00-1.40 °C1012.80 hPa89.00 %-3.20 °C 
08:00:00-1.70 °C1013.10 hPa89.00 %-3.50 °C 
07:45:00-2.20 °C1013.30 hPa89.00 %-4.00 °C 
07:30:00-2.60 °C1013.40 hPa88.00 %-4.50 °C 
07:15:00-2.70 °C1013.70 hPa88.00 %-4.60 °C 
07:00:00-2.90 °C1013.90 hPa88.00 %2.52 km/hSW-2.90 °C-4.80 °C 
06:45:00-2.80 °C1014.00 hPa88.00 %-4.70 °C 
06:30:00-3.00 °C1013.80 hPa88.00 %-4.90 °C 
06:15:00-2.80 °C1014.10 hPa88.00 %-4.70 °C 
06:00:00-2.60 °C1014.30 hPa88.00 %1.80 km/hSW-2.60 °C-4.50 °C 
05:45:00-2.20 °C1014.40 hPa89.00 %-4.00 °C 
05:30:00-2.10 °C1014.40 hPa89.00 %7.20 km/hSW-4.90 °C-3.90 °C 
05:15:00-2.20 °C1014.50 hPa89.00 %10.80 km/hSSW-6.20 °C-4.00 °C 
05:00:00-2.20 °C1014.50 hPa89.00 %4.68 km/hWSW-2.20 °C-4.00 °C 
04:45:00-2.40 °C1014.70 hPa89.00 %6.48 km/hW-5.00 °C-4.10 °C 
04:30:00-2.40 °C1014.60 hPa89.00 %-4.10 °C 
04:15:00-2.40 °C1014.70 hPa89.00 %6.12 km/hWSW-4.80 °C-4.10 °C 
04:00:00-2.20 °C1014.70 hPa89.00 %-4.00 °C 
03:45:00-2.10 °C1014.50 hPa89.00 %10.44 km/hWSW-5.90 °C-3.90 °C 
03:30:00-2.20 °C1014.70 hPa89.00 %2.88 km/hWNW-2.20 °C-4.00 °C 
03:15:00-1.90 °C1014.90 hPa89.00 %-3.70 °C 
03:00:00-2.20 °C1014.90 hPa88.00 %-4.10 °C 
02:45:00-2.70 °C1015.00 hPa87.00 %-4.80 °C 
02:30:00-2.40 °C1015.10 hPa87.00 %-4.50 °C 
02:15:00-2.10 °C1015.10 hPa87.00 %-4.20 °C 
02:00:00-1.90 °C1015.10 hPa87.00 %-4.00 °C 
01:45:00-1.40 °C1015.00 hPa87.00 %-3.50 °C 
01:30:00-1.00 °C1015.00 hPa87.00 %-3.10 °C 
01:15:00-1.00 °C1015.00 hPa87.00 %1.44 km/hWNW-1.00 °C-3.10 °C 
01:00:00-1.00 °C1014.80 hPa87.00 %-3.10 °C 
00:45:00-1.00 °C1015.00 hPa87.00 %5.40 km/hSW-2.90 °C-3.10 °C 
00:30:00-1.00 °C1015.20 hPa87.00 %-3.10 °C 
00:15:00-1.00 °C1015.10 hPa87.00 %-3.10 °C 
00:00:00-1.00 °C1015.10 hPa87.00 %14.04 km/hSSW-5.50 °C-3.10 °C 

Permanenter Link zu dieser Seite: Wetter im Erzgebirge am 20.02.2016
Performance-Info: Die Erstellung der Seite / Statistik(en) / Tabelle(n) erforderte 5 Datenbankserver-Abfrage(n) und dauerte 123 Millisekunden. (Dieser Messwert ist von der Gesamt-Auslastung des Servers abhängig.)
Erzgebirge - Wetter | Erzgebirge - Wetter (Mobilgeräte) | Komplette Klimadatenbank